createdAt,value
2023-06-09T00:02:24.607Z,17.50
2023-06-09T00:05:26.841Z,17.51
2023-06-09T00:08:28.559Z,17.58
2023-06-09T00:11:30.292Z,17.62
2023-06-09T00:14:31.998Z,17.66
2023-06-09T00:17:35.123Z,17.65
2023-06-09T00:20:37.097Z,17.64
2023-06-09T00:23:38.857Z,17.50
2023-06-09T00:26:40.603Z,17.49
2023-06-09T00:29:42.572Z,17.40
2023-06-09T00:32:45.943Z,17.41
2023-06-09T00:35:47.673Z,17.25
2023-06-09T00:38:49.586Z,17.32
2023-06-09T00:41:51.540Z,17.15
2023-06-09T00:44:53.697Z,17.23
2023-06-09T00:47:56.926Z,17.25
2023-06-09T00:50:58.478Z,17.16
2023-06-09T00:54:00.249Z,17.00
2023-06-09T00:57:02.239Z,16.93
2023-06-09T01:00:04.955Z,16.91
2023-06-09T01:03:08.117Z,16.88
2023-06-09T01:06:19.437Z,16.90
2023-06-09T01:09:26.580Z,16.93
2023-06-09T01:12:35.236Z,16.98
2023-06-09T01:15:44.354Z,17.06
2023-06-09T01:18:49.485Z,17.10
2023-06-09T01:21:54.834Z,17.00
2023-06-09T01:25:06.953Z,17.04
2023-06-09T01:28:13.444Z,17.09
2023-06-09T01:31:16.079Z,17.05
2023-06-09T01:34:18.761Z,17.09
2023-06-09T01:37:21.216Z,17.11
2023-06-09T01:40:23.122Z,17.05
2023-06-09T01:43:26.282Z,17.06
2023-06-09T01:46:28.212Z,17.13
2023-06-09T01:49:38.315Z,17.05
2023-06-09T01:52:43.882Z,17.03
2023-06-09T01:55:51.949Z,16.93
2023-06-09T01:58:58.466Z,17.06
2023-06-09T02:02:02.896Z,16.92
2023-06-09T02:05:08.037Z,16.86
2023-06-09T02:08:10.735Z,16.91
2023-06-09T02:11:12.890Z,16.90
2023-06-09T02:14:16.315Z,16.91
2023-06-09T02:17:18.383Z,16.88
2023-06-09T02:20:20.112Z,16.88
2023-06-09T02:23:23.792Z,16.81
2023-06-09T02:26:25.527Z,16.74
2023-06-09T02:29:28.666Z,16.77
2023-06-09T02:32:30.658Z,16.96
2023-06-09T02:35:32.641Z,16.77
2023-06-09T02:38:34.427Z,16.61
2023-06-09T02:41:36.136Z,16.64
2023-06-09T02:44:39.672Z,16.69
2023-06-09T02:47:41.609Z,16.74
2023-06-09T02:50:43.409Z,16.82
2023-06-09T02:53:45.217Z,16.84
2023-06-09T02:56:47.085Z,16.80
2023-06-09T02:59:50.137Z,16.76
2023-06-09T03:02:51.822Z,16.69
2023-06-09T03:05:53.512Z,16.68
2023-06-09T03:08:55.513Z,16.82
2023-06-09T03:11:57.444Z,16.80
2023-06-09T03:15:00.604Z,16.84
2023-06-09T03:18:02.463Z,16.79
2023-06-09T03:21:04.257Z,16.83
2023-06-09T03:24:07.186Z,16.83
2023-06-09T03:27:09.037Z,16.86
2023-06-09T03:30:13.059Z,16.93
2023-06-09T03:33:15.447Z,17.03
2023-06-09T03:36:17.171Z,17.00
2023-06-09T03:39:18.871Z,16.94
2023-06-09T03:42:20.726Z,17.00
2023-06-09T03:45:23.996Z,16.96
2023-06-09T03:48:26.524Z,17.02
2023-06-09T03:51:28.305Z,17.09
2023-06-09T03:54:30.292Z,17.12
2023-06-09T03:57:32.119Z,17.19
2023-06-09T04:00:35.185Z,17.24
2023-06-09T04:03:36.963Z,17.37
2023-06-09T04:06:38.677Z,17.52
2023-06-09T04:09:40.360Z,17.63
2023-06-09T04:12:42.356Z,17.65
2023-06-09T04:15:45.468Z,17.72
2023-06-09T04:18:47.190Z,17.73
2023-06-09T04:21:49.322Z,17.85
2023-06-09T04:24:51.024Z,17.82
2023-06-09T04:27:53.039Z,17.90
2023-06-09T04:30:56.179Z,17.87
2023-06-09T04:33:57.931Z,17.97
2023-06-09T04:36:59.642Z,17.95
2023-06-09T04:40:01.358Z,17.94
2023-06-09T04:43:03.133Z,17.92
2023-06-09T04:46:06.294Z,17.94
2023-06-09T04:49:08.515Z,18.02
2023-06-09T04:52:10.298Z,18.10
2023-06-09T04:55:12.376Z,18.15
2023-06-09T04:58:14.101Z,18.04
2023-06-09T05:01:17.275Z,18.09
2023-06-09T05:04:19.095Z,18.09
2023-06-09T05:07:20.871Z,18.06
2023-06-09T05:10:22.584Z,18.04
2023-06-09T05:13:24.362Z,17.98
2023-06-09T05:16:27.693Z,17.87
2023-06-09T05:19:29.485Z,17.76
2023-06-09T05:22:31.276Z,17.61
2023-06-09T05:25:33.146Z,17.39
2023-06-09T05:28:35.106Z,17.34
2023-06-09T05:31:38.270Z,17.33
2023-06-09T05:34:39.787Z,17.35
2023-06-09T05:37:49.404Z,17.37
2023-06-09T05:40:51.105Z,17.40
2023-06-09T05:43:52.795Z,17.40
2023-06-09T05:46:56.056Z,17.37
2023-06-09T05:49:57.795Z,17.37
2023-06-09T05:52:59.788Z,17.34
2023-06-09T05:56:01.818Z,17.38
2023-06-09T05:59:03.837Z,17.42
2023-06-09T06:02:07.157Z,17.44
2023-06-09T06:05:10.039Z,17.48
2023-06-09T06:08:11.789Z,17.53
2023-06-09T06:11:13.722Z,17.63
2023-06-09T06:14:15.398Z,17.63
2023-06-09T06:17:18.544Z,17.64
2023-06-09T06:20:20.444Z,17.66
2023-06-09T06:23:22.303Z,17.69
2023-06-09T06:26:24.500Z,17.63
2023-06-09T06:29:26.463Z,17.53
2023-06-09T06:32:29.581Z,17.33
2023-06-09T06:35:31.591Z,17.18
2023-06-09T06:38:33.817Z,17.15
2023-06-09T06:41:35.464Z,17.21
2023-06-09T06:44:37.158Z,17.32
2023-06-09T06:47:41.122Z,17.34
2023-06-09T06:50:43.149Z,17.13
2023-06-09T06:53:44.955Z,17.21
2023-06-09T06:56:46.790Z,17.13
2023-06-09T06:59:48.831Z,17.31
2023-06-09T07:02:52.216Z,17.28
2023-06-09T07:05:54.738Z,17.37
2023-06-09T07:08:56.929Z,17.23
2023-06-09T07:11:59.322Z,17.17
2023-06-09T07:15:01.318Z,17.26
2023-06-09T07:18:05.133Z,17.43
2023-06-09T07:21:07.249Z,17.61
2023-06-09T07:24:09.414Z,17.69
2023-06-09T07:27:11.487Z,17.83
2023-06-09T07:30:13.801Z,18.06
2023-06-09T07:33:17.028Z,18.19
2023-06-09T07:36:18.858Z,18.22
2023-06-09T07:39:20.825Z,18.23
2023-06-09T07:42:22.525Z,18.43
2023-06-09T07:45:24.431Z,18.49
2023-06-09T07:48:27.823Z,18.73
2023-06-09T07:51:29.681Z,19.06
2023-06-09T07:54:31.427Z,19.30
2023-06-09T07:57:33.402Z,19.44
2023-06-09T08:00:35.346Z,19.50
2023-06-09T08:03:38.500Z,19.42
2023-06-09T08:06:40.036Z,19.61
2023-06-09T08:09:41.859Z,19.74
2023-06-09T08:12:43.935Z,19.96
2023-06-09T08:15:45.728Z,20.06
2023-06-09T08:18:48.902Z,19.77
2023-06-09T08:21:50.644Z,19.49
2023-06-09T08:24:52.449Z,19.36
2023-06-09T08:27:54.374Z,19.14
2023-06-09T08:30:56.391Z,18.87
2023-06-09T08:33:59.647Z,18.82
2023-06-09T08:37:01.502Z,18.67
2023-06-09T08:40:03.588Z,18.64
2023-06-09T08:43:05.536Z,18.87
2023-06-09T08:46:10.773Z,18.83
2023-06-09T08:49:16.545Z,19.11
2023-06-09T08:52:19.104Z,19.24
2023-06-09T08:55:21.067Z,19.37
2023-06-09T08:58:22.819Z,19.52
2023-06-09T09:01:25.150Z,19.87
2023-06-09T09:04:28.416Z,20.10
2023-06-09T09:07:30.525Z,20.53
2023-06-09T09:10:32.492Z,20.84
2023-06-09T09:13:34.518Z,21.08
2023-06-09T09:16:44.028Z,21.37
2023-06-09T09:19:48.273Z,21.56
2023-06-09T09:22:54.023Z,21.65
2023-06-09T09:25:55.761Z,21.71
2023-06-09T09:29:00.987Z,21.59
2023-06-09T09:32:02.741Z,20.84
2023-06-09T09:35:07.271Z,21.08
2023-06-09T09:38:13.443Z,21.20
2023-06-09T09:41:15.690Z,21.18
2023-06-09T09:44:18.484Z,20.61
2023-06-09T09:47:20.348Z,20.43
2023-06-09T09:50:24.331Z,20.71
2023-06-09T09:53:28.215Z,20.52
2023-06-09T09:56:30.758Z,20.27
2023-06-09T09:59:32.708Z,20.07
2023-06-09T10:02:42.952Z,19.93
2023-06-09T10:05:49.099Z,19.80
2023-06-09T10:08:52.470Z,19.48
2023-06-09T10:11:55.820Z,19.66
2023-06-09T10:14:58.146Z,19.79
2023-06-09T10:18:01.280Z,19.68
2023-06-09T10:21:04.427Z,19.84
2023-06-09T10:24:12.691Z,20.47
2023-06-09T10:27:14.865Z,20.93
2023-06-09T10:30:16.747Z,21.25
2023-06-09T10:33:23.633Z,21.58
2023-06-09T10:36:35.610Z,21.90
2023-06-09T10:39:51.197Z,22.29
2023-06-09T10:43:04.730Z,22.73
2023-06-09T10:46:06.864Z,22.73
2023-06-09T10:49:09.696Z,22.99
2023-06-09T10:52:44.787Z,23.18
2023-06-09T10:55:48.294Z,23.00
2023-06-09T10:58:50.009Z,23.26
2023-06-09T11:02:21.284Z,23.16
2023-06-09T11:05:41.547Z,23.44
2023-06-09T11:09:07.979Z,23.60
2023-06-09T11:12:22.622Z,23.60
2023-06-09T11:15:44.881Z,23.74
2023-06-09T11:19:08.097Z,23.83
2023-06-09T11:22:10.464Z,24.01
2023-06-09T11:25:34.874Z,24.36
2023-06-09T11:28:40.855Z,24.87
2023-06-09T11:31:52.220Z,25.25
2023-06-09T11:34:55.416Z,25.19
2023-06-09T11:37:58.466Z,25.10
2023-06-09T11:41:01.958Z,24.68
2023-06-09T11:44:04.521Z,24.06
2023-06-09T11:47:24.593Z,23.97
2023-06-09T11:50:36.207Z,23.65
2023-06-09T11:53:38.028Z,23.30
2023-06-09T11:56:40.028Z,23.20
2023-06-09T11:59:45.967Z,22.85
2023-06-09T12:02:49.066Z,22.66
2023-06-09T12:05:53.606Z,22.59
2023-06-09T12:09:20.928Z,22.02
2023-06-09T12:12:22.440Z,21.56
2023-06-09T12:15:26.307Z,20.91
2023-06-09T12:18:28.942Z,20.92
2023-06-09T12:21:34.296Z,20.30
2023-06-09T12:24:36.110Z,19.77
2023-06-09T12:27:37.889Z,19.29
2023-06-09T12:30:40.844Z,18.94
2023-06-09T12:33:47.102Z,18.96
2023-06-09T12:36:50.731Z,18.92
2023-06-09T12:40:03.414Z,18.99
2023-06-09T12:43:06.456Z,19.19
2023-06-09T12:46:08.602Z,19.47
2023-06-09T12:49:11.567Z,19.63
2023-06-09T12:52:14.780Z,19.79
2023-06-09T12:55:16.479Z,19.67
2023-06-09T12:58:18.250Z,19.84
2023-06-09T13:01:21.404Z,20.09
2023-06-09T13:04:25.087Z,19.92
2023-06-09T13:07:28.302Z,19.97
2023-06-09T13:10:30.160Z,20.21
2023-06-09T13:13:34.785Z,20.42
2023-06-09T13:16:36.989Z,20.56
2023-06-09T13:19:38.904Z,20.69
2023-06-09T13:22:42.701Z,20.76
2023-06-09T13:25:45.515Z,20.72
2023-06-09T13:28:47.274Z,20.72
2023-06-09T13:31:48.984Z,20.62
2023-06-09T13:34:52.979Z,20.49
2023-06-09T13:37:56.594Z,20.41
2023-06-09T13:40:58.655Z,20.41
2023-06-09T13:44:00.686Z,20.55
2023-06-09T13:47:02.563Z,20.43
2023-06-09T13:50:04.923Z,20.41
2023-06-09T13:53:08.111Z,20.62
2023-06-09T13:56:09.696Z,20.70
2023-06-09T13:59:11.725Z,20.75
2023-06-09T14:02:13.572Z,20.61
2023-06-09T14:05:15.582Z,20.64
2023-06-09T14:08:19.136Z,20.52
2023-06-09T14:11:23.212Z,20.66
2023-06-09T14:14:25.340Z,20.66
2023-06-09T14:17:27.516Z,20.62
2023-06-09T14:20:29.450Z,20.66
2023-06-09T14:23:32.721Z,20.64
2023-06-09T14:26:34.496Z,20.67
2023-06-09T14:29:36.270Z,20.69
2023-06-09T14:32:38.503Z,20.69
2023-06-09T14:35:40.902Z,20.63
2023-06-09T14:38:44.000Z,20.86
2023-06-09T14:41:46.165Z,20.87
2023-06-09T14:44:48.428Z,20.71
2023-06-09T14:47:51.947Z,20.85
2023-06-09T14:50:53.834Z,21.02
2023-06-09T14:53:57.165Z,21.33
2023-06-09T14:56:58.952Z,21.34
2023-06-09T15:00:01.240Z,21.17
2023-06-09T15:03:03.924Z,21.15
2023-06-09T15:06:08.818Z,20.75
2023-06-09T15:09:12.267Z,20.96
2023-06-09T15:12:16.496Z,20.95
2023-06-09T15:15:20.043Z,21.00
2023-06-09T15:18:21.872Z,21.00
2023-06-09T15:21:23.747Z,20.75
2023-06-09T15:24:27.023Z,20.76
2023-06-09T15:27:29.015Z,20.79
2023-06-09T15:30:32.779Z,20.61
2023-06-09T15:33:34.583Z,20.63
2023-06-09T15:36:36.338Z,20.59
2023-06-09T15:39:39.572Z,20.55
2023-06-09T15:42:41.258Z,20.36
2023-06-09T15:45:44.873Z,20.23
2023-06-09T15:48:46.652Z,20.08
2023-06-09T15:51:48.348Z,20.29
2023-06-09T15:54:51.393Z,20.17
2023-06-09T15:57:53.106Z,20.16
2023-06-09T16:00:54.875Z,20.14
2023-06-09T16:03:56.699Z,20.25
2023-06-09T16:06:58.543Z,20.41
2023-06-09T16:10:01.715Z,20.53
2023-06-09T16:13:05.846Z,20.44
2023-06-09T16:16:07.618Z,20.48
2023-06-09T16:19:09.340Z,20.30
2023-06-09T16:22:11.560Z,20.43
2023-06-09T16:25:14.704Z,20.55
2023-06-09T16:28:16.224Z,20.31
2023-06-09T16:31:25.232Z,20.37
2023-06-09T16:34:26.991Z,20.37
2023-06-09T16:37:30.046Z,20.40
2023-06-09T16:40:33.449Z,20.48
2023-06-09T16:43:35.200Z,20.48
2023-06-09T16:46:37.214Z,20.45
2023-06-09T16:49:39.280Z,20.34
2023-06-09T16:52:41.123Z,20.23
2023-06-09T16:55:44.216Z,20.13
2023-06-09T16:58:45.680Z,20.00
2023-06-09T17:01:47.232Z,19.79
2023-06-09T17:04:48.969Z,19.71
2023-06-09T17:07:51.005Z,19.48
2023-06-09T17:10:54.556Z,19.46
2023-06-09T17:13:56.390Z,19.25
2023-06-09T17:16:58.143Z,19.04
2023-06-09T17:20:00.213Z,18.97
2023-06-09T17:23:02.076Z,19.07
2023-06-09T17:26:05.330Z,18.99
2023-06-09T17:29:07.349Z,18.92
2023-06-09T17:32:09.902Z,18.82
2023-06-09T17:35:12.117Z,18.79
2023-06-09T17:38:13.896Z,18.83
2023-06-09T17:41:18.922Z,18.73
2023-06-09T17:44:20.807Z,18.65
2023-06-09T17:47:22.598Z,18.57
2023-06-09T17:50:24.390Z,18.61
2023-06-09T17:53:26.118Z,18.60
2023-06-09T17:56:29.113Z,18.66
2023-06-09T17:59:30.843Z,18.75
2023-06-09T18:02:32.919Z,18.49
2023-06-09T18:05:34.806Z,18.39
2023-06-09T18:08:36.641Z,18.28
2023-06-09T18:11:40.207Z,18.22
2023-06-09T18:14:42.379Z,18.29
2023-06-09T18:17:44.426Z,18.47
2023-06-09T18:20:46.283Z,18.47
2023-06-09T18:23:47.997Z,18.29
2023-06-09T18:26:51.135Z,18.29
2023-06-09T18:29:52.738Z,18.17
2023-06-09T18:32:54.548Z,18.30
2023-06-09T18:35:56.304Z,18.14
2023-06-09T18:38:58.829Z,17.98
2023-06-09T18:42:02.033Z,18.03
2023-06-09T18:45:04.523Z,18.12
2023-06-09T18:48:06.687Z,18.02
2023-06-09T18:51:08.866Z,17.96
2023-06-09T18:54:10.594Z,17.92
2023-06-09T18:57:13.986Z,17.89
2023-06-09T19:00:16.541Z,17.86
2023-06-09T19:03:18.360Z,17.86
2023-06-09T19:06:20.228Z,17.86
2023-06-09T19:09:22.109Z,17.80
2023-06-09T19:12:25.269Z,17.77
2023-06-09T19:15:27.354Z,17.72
2023-06-09T19:18:29.068Z,17.75
2023-06-09T19:21:30.774Z,17.74
2023-06-09T19:24:32.497Z,17.73
2023-06-09T19:27:35.566Z,17.71
2023-06-09T19:30:37.636Z,17.77
2023-06-09T19:33:39.580Z,17.74
2023-06-09T19:36:41.578Z,17.76
2023-06-09T19:39:43.314Z,17.69
2023-06-09T19:42:46.761Z,17.61
2023-06-09T19:45:48.660Z,17.58
2023-06-09T19:48:50.731Z,17.49
2023-06-09T19:51:52.581Z,17.45
2023-06-09T19:54:54.695Z,17.39
2023-06-09T19:57:58.051Z,17.33
2023-06-09T20:01:00.009Z,17.48
2023-06-09T20:04:01.884Z,17.36
2023-06-09T20:07:04.079Z,17.30
2023-06-09T20:10:06.996Z,17.31
2023-06-09T20:13:10.097Z,17.28
2023-06-09T20:16:11.881Z,17.25
2023-06-09T20:19:13.658Z,17.30
2023-06-09T20:22:15.431Z,17.30
2023-06-09T20:25:17.241Z,17.25
2023-06-09T20:28:20.321Z,17.41
2023-06-09T20:31:22.074Z,17.47
2023-06-09T20:34:23.821Z,17.50
2023-06-09T20:37:25.494Z,17.43
2023-06-09T20:40:27.210Z,17.36
2023-06-09T20:43:30.399Z,17.32
2023-06-09T20:46:32.086Z,17.37
2023-06-09T20:49:33.834Z,17.24
2023-06-09T20:52:35.728Z,17.31
2023-06-09T20:55:37.614Z,17.24
2023-06-09T20:58:42.686Z,17.23
2023-06-09T21:01:44.417Z,17.26
2023-06-09T21:04:46.148Z,17.24
2023-06-09T21:07:47.904Z,17.30
2023-06-09T21:10:49.643Z,17.28
2023-06-09T21:13:53.874Z,17.30
2023-06-09T21:16:55.579Z,17.31
2023-06-09T21:19:57.316Z,17.43
2023-06-09T21:22:59.268Z,17.38
2023-06-09T21:26:00.994Z,17.19
2023-06-09T21:29:04.333Z,17.14
2023-06-09T21:32:07.176Z,17.19
2023-06-09T21:35:10.368Z,17.17
2023-06-09T21:38:12.636Z,17.16
2023-06-09T21:41:14.377Z,17.20
2023-06-09T21:44:17.484Z,17.21
2023-06-09T21:47:19.570Z,17.17
2023-06-09T21:50:21.668Z,17.23
2023-06-09T21:53:23.709Z,17.15
2023-06-09T21:56:25.424Z,17.19
2023-06-09T21:59:28.521Z,17.25
2023-06-09T22:02:30.232Z,17.12
2023-06-09T22:05:31.962Z,17.18
2023-06-09T22:08:35.325Z,17.13
2023-06-09T22:11:39.442Z,17.02
2023-06-09T22:14:42.528Z,16.98
2023-06-09T22:17:44.333Z,16.95
2023-06-09T22:20:46.128Z,16.86
2023-06-09T22:23:48.218Z,16.82
2023-06-09T22:26:59.951Z,16.72
2023-06-09T22:30:05.472Z,16.66
2023-06-09T22:33:07.583Z,16.69
2023-06-09T22:36:09.410Z,16.53
2023-06-09T22:39:11.150Z,16.46
2023-06-09T22:42:12.888Z,16.36
2023-06-09T22:45:16.215Z,16.38
2023-06-09T22:48:17.818Z,16.34
2023-06-09T22:51:19.321Z,16.31
2023-06-09T22:54:21.047Z,16.18
2023-06-09T22:57:22.858Z,16.12
2023-06-09T23:00:25.952Z,16.08
2023-06-09T23:03:28.136Z,16.05
2023-06-09T23:06:30.121Z,16.03
2023-06-09T23:09:31.902Z,16.09
2023-06-09T23:12:33.664Z,16.09
2023-06-09T23:15:36.786Z,16.13
2023-06-09T23:18:38.500Z,16.17
2023-06-09T23:21:40.221Z,16.29
2023-06-09T23:24:42.625Z,16.37
2023-06-09T23:27:44.764Z,16.40
2023-06-09T23:30:48.033Z,16.39
2023-06-09T23:33:49.817Z,16.39
2023-06-09T23:36:51.754Z,16.45
2023-06-09T23:39:53.497Z,16.45
2023-06-09T23:42:55.240Z,16.40
2023-06-09T23:45:58.333Z,16.36
2023-06-09T23:49:00.325Z,16.35
2023-06-09T23:52:02.127Z,16.34
2023-06-09T23:55:04.153Z,16.36
2023-06-09T23:58:05.812Z,16.41
